createdAt,value
2018-08-03T00:00:40.953Z,18.10
2018-08-03T00:03:09.761Z,14.87
2018-08-03T00:05:39.236Z,16.70
2018-08-03T00:08:08.139Z,15.23
2018-08-03T00:10:36.846Z,18.50
2018-08-03T00:13:05.422Z,15.83
2018-08-03T00:15:35.279Z,13.87
2018-08-03T00:18:03.942Z,14.83
2018-08-03T00:20:32.587Z,15.10
2018-08-03T00:23:01.246Z,14.90
2018-08-03T00:25:30.581Z,14.53
2018-08-03T00:27:59.220Z,14.03
2018-08-03T00:30:27.949Z,15.83
2018-08-03T00:32:57.234Z,14.80
2018-08-03T00:35:25.871Z,22.15
2018-08-03T00:37:55.164Z,17.00
2018-08-03T00:40:23.890Z,14.33
2018-08-03T00:42:52.544Z,15.00
2018-08-03T00:45:21.601Z,15.37
2018-08-03T00:47:50.349Z,13.97
2018-08-03T00:50:19.085Z,14.17
2018-08-03T00:52:47.727Z,14.27
2018-08-03T00:55:16.306Z,13.83
2018-08-03T00:57:45.820Z,14.10
2018-08-03T01:00:14.425Z,15.90
2018-08-03T01:02:43.220Z,14.77
2018-08-03T01:05:11.784Z,15.37
2018-08-03T01:07:40.450Z,14.65
2018-08-03T01:10:09.965Z,15.20
2018-08-03T01:12:39.287Z,13.63
2018-08-03T01:15:08.639Z,13.53
2018-08-03T01:17:37.277Z,19.48
2018-08-03T01:20:06.512Z,18.20
2018-08-03T01:22:35.137Z,15.80
2018-08-03T01:25:03.811Z,15.53
2018-08-03T01:27:32.580Z,14.33
2018-08-03T01:30:01.269Z,15.47
2018-08-03T01:32:30.012Z,16.80
2018-08-03T01:34:58.757Z,14.73
2018-08-03T01:37:27.507Z,16.07
2018-08-03T01:39:56.151Z,15.03
2018-08-03T01:42:24.951Z,15.40
2018-08-03T01:44:54.487Z,16.00
2018-08-03T01:47:23.105Z,16.00
2018-08-03T01:49:51.690Z,14.73
2018-08-03T01:52:20.526Z,14.53
2018-08-03T01:54:49.202Z,17.77
2018-08-03T01:57:18.678Z,15.93
2018-08-03T01:59:47.294Z,19.53
2018-08-03T02:02:16.787Z,15.53
2018-08-03T02:04:45.495Z,17.60
2018-08-03T02:07:14.272Z,15.57
2018-08-03T02:09:42.962Z,18.47
2018-08-03T02:12:11.785Z,16.60
2018-08-03T02:14:40.547Z,16.73
2018-08-03T02:17:09.264Z,16.33
2018-08-03T02:19:38.696Z,17.13
2018-08-03T02:22:07.380Z,17.47
2018-08-03T02:24:36.861Z,16.20
2018-08-03T02:27:05.530Z,16.60
2018-08-03T02:29:34.166Z,15.60
2018-08-03T02:32:02.787Z,16.80
2018-08-03T02:34:31.471Z,16.10
2018-08-03T02:37:00.105Z,14.90
2018-08-03T02:39:29.502Z,17.47
2018-08-03T02:41:58.485Z,15.98
2018-08-03T02:44:27.373Z,18.93
2018-08-03T02:46:57.639Z,17.03
2018-08-03T02:49:27.132Z,14.95
2018-08-03T02:51:56.060Z,17.23
2018-08-03T02:54:24.656Z,17.67
2018-08-03T02:56:53.250Z,16.50
2018-08-03T02:59:22.043Z,18.10
2018-08-03T03:01:50.740Z,17.07
2018-08-03T03:04:19.417Z,16.27
2018-08-03T03:06:48.022Z,16.63
2018-08-03T03:09:16.597Z,17.27
2018-08-03T03:11:45.227Z,16.23
2018-08-03T03:14:13.921Z,21.03
2018-08-03T03:16:42.710Z,47.00
2018-08-03T03:19:11.360Z,14.63
2018-08-03T03:21:40.211Z,15.93
2018-08-03T03:24:08.867Z,15.70
2018-08-03T03:26:37.550Z,16.73
2018-08-03T03:29:06.195Z,15.07
2018-08-03T03:31:35.126Z,17.67
2018-08-03T03:34:03.847Z,19.20
2018-08-03T03:36:32.592Z,20.73
2018-08-03T03:39:01.946Z,16.40
2018-08-03T03:41:30.498Z,15.83
2018-08-03T03:43:59.265Z,17.13
2018-08-03T03:46:27.946Z,17.73
2018-08-03T03:48:56.702Z,16.87
2018-08-03T03:51:26.033Z,17.63
2018-08-03T03:53:54.787Z,18.27
2018-08-03T03:56:23.473Z,17.17
2018-08-03T03:58:52.272Z,16.82
2018-08-03T04:01:20.923Z,16.70
2018-08-03T04:03:49.620Z,19.13
2018-08-03T04:06:18.319Z,18.73
2018-08-03T04:08:46.952Z,17.30
2018-08-03T04:11:15.743Z,17.00
2018-08-03T04:13:44.441Z,15.93
2018-08-03T04:16:13.280Z,46.00
2018-08-03T04:18:41.931Z,19.70
2018-08-03T04:21:10.697Z,15.97
2018-08-03T04:23:39.477Z,15.67
2018-08-03T04:26:08.572Z,17.50
2018-08-03T04:28:37.182Z,15.20
2018-08-03T04:31:06.673Z,19.47
2018-08-03T04:33:35.906Z,25.33
2018-08-03T04:36:04.556Z,17.90
2018-08-03T04:38:33.392Z,18.33
2018-08-03T04:41:02.117Z,15.00
2018-08-03T04:43:30.773Z,15.30
2018-08-03T04:45:59.502Z,16.13
2018-08-03T04:48:28.308Z,14.33
2018-08-03T04:50:56.997Z,15.83
2018-08-03T04:53:25.736Z,17.70
2018-08-03T04:55:54.576Z,19.17
2018-08-03T04:58:23.257Z,16.77
2018-08-03T05:00:52.498Z,17.27
2018-08-03T05:03:22.250Z,15.83
2018-08-03T05:05:50.936Z,18.20
2018-08-03T05:08:19.596Z,13.57
2018-08-03T05:10:48.271Z,18.50
2018-08-03T05:13:16.840Z,15.83
2018-08-03T05:15:45.588Z,16.03
2018-08-03T05:18:14.202Z,13.60
2018-08-03T05:20:42.795Z,12.90
2018-08-03T05:23:11.593Z,14.23
2018-08-03T05:25:40.183Z,16.83
2018-08-03T05:28:08.875Z,16.10
2018-08-03T05:30:37.565Z,20.77
2018-08-03T05:33:06.198Z,16.60
2018-08-03T05:35:34.853Z,13.20
2018-08-03T05:38:03.566Z,12.40
2018-08-03T05:40:32.132Z,26.03
2018-08-03T05:43:01.729Z,12.37
2018-08-03T05:45:30.925Z,11.77
2018-08-03T05:47:59.573Z,12.13
2018-08-03T05:50:29.033Z,12.50
2018-08-03T05:52:57.652Z,11.38
2018-08-03T05:55:26.378Z,13.37
2018-08-03T05:57:55.055Z,12.13
2018-08-03T06:00:23.724Z,12.03
2018-08-03T06:02:52.363Z,12.73
2018-08-03T06:05:21.701Z,11.63
2018-08-03T06:07:50.757Z,13.30
2018-08-03T06:10:20.206Z,14.60
2018-08-03T06:12:48.795Z,12.30
2018-08-03T06:15:17.488Z,12.13
2018-08-03T06:17:46.161Z,13.43
2018-08-03T06:20:14.929Z,12.73
2018-08-03T06:22:43.556Z,12.90
2018-08-03T06:25:12.367Z,13.67
2018-08-03T06:27:40.937Z,15.73
2018-08-03T06:30:11.928Z,12.63
2018-08-03T06:32:41.163Z,13.67
2018-08-03T06:35:09.772Z,12.03
2018-08-03T06:37:38.407Z,14.47
2018-08-03T06:40:07.976Z,15.47
2018-08-03T06:42:36.668Z,12.57
2018-08-03T06:45:05.678Z,16.03
2018-08-03T06:47:34.341Z,14.03
2018-08-03T06:50:02.918Z,11.23
2018-08-03T06:52:31.583Z,12.93
2018-08-03T06:55:00.259Z,10.80
2018-08-03T06:57:28.988Z,12.33
2018-08-03T06:59:58.368Z,13.40
2018-08-03T07:02:27.004Z,13.47
2018-08-03T07:04:55.650Z,11.00
2018-08-03T07:07:24.286Z,11.00
2018-08-03T07:09:53.053Z,11.80
2018-08-03T07:12:21.803Z,10.40
2018-08-03T07:14:51.275Z,11.70
2018-08-03T07:17:20.002Z,10.07
2018-08-03T07:19:48.708Z,10.23
2018-08-03T07:22:17.427Z,9.87
2018-08-03T07:24:46.035Z,10.20
2018-08-03T07:27:15.274Z,17.20
2018-08-03T07:29:44.044Z,17.60
2018-08-03T07:32:12.722Z,10.80
2018-08-03T07:34:41.337Z,14.38
2018-08-03T07:37:10.053Z,9.10
2018-08-03T07:39:38.841Z,9.63
2018-08-03T07:42:07.532Z,10.82
2018-08-03T07:44:36.216Z,8.53
2018-08-03T07:47:04.977Z,9.05
2018-08-03T07:49:34.573Z,8.68
2018-08-03T07:52:03.432Z,8.53
2018-08-03T07:54:32.877Z,10.35
2018-08-03T07:57:01.542Z,19.62
2018-08-03T07:59:30.187Z,7.15
2018-08-03T08:01:58.940Z,7.60
2018-08-03T08:04:28.192Z,7.22
2018-08-03T08:06:56.843Z,8.43
2018-08-03T08:09:25.689Z,7.28
2018-08-03T08:11:54.296Z,10.10
2018-08-03T08:14:23.762Z,7.78
2018-08-03T08:16:52.414Z,7.37
2018-08-03T08:19:21.037Z,7.67
2018-08-03T08:21:49.765Z,9.98
2018-08-03T08:24:18.423Z,6.90
2018-08-03T08:26:47.112Z,6.53
2018-08-03T08:29:15.897Z,5.53
2018-08-03T08:31:45.218Z,5.22
2018-08-03T08:34:14.008Z,9.48
2018-08-03T08:36:43.589Z,8.43
2018-08-03T08:39:13.683Z,5.17
2018-08-03T08:41:43.471Z,4.78
2018-08-03T08:44:13.204Z,6.65
2018-08-03T08:46:42.409Z,4.75
2018-08-03T08:49:11.732Z,4.72
2018-08-03T08:51:40.308Z,9.13
2018-08-03T08:54:09.085Z,4.30
2018-08-03T08:56:37.884Z,4.03
2018-08-03T08:59:06.531Z,4.15
2018-08-03T09:01:35.398Z,4.28
2018-08-03T09:04:04.068Z,4.05
2018-08-03T09:06:32.680Z,3.92
2018-08-03T09:09:01.483Z,3.20
2018-08-03T09:11:30.219Z,3.72
2018-08-03T09:13:58.919Z,4.87
2018-08-03T09:16:27.644Z,3.12
2018-08-03T09:18:56.385Z,3.37
2018-08-03T09:21:25.121Z,10.08
2018-08-03T09:23:53.816Z,4.55
2018-08-03T09:26:22.480Z,2.52
2018-08-03T09:28:52.609Z,3.92
2018-08-03T09:31:21.653Z,2.80
2018-08-03T09:33:51.079Z,3.08
2018-08-03T09:36:19.904Z,3.02
2018-08-03T09:38:49.265Z,2.87
2018-08-03T09:41:17.990Z,3.35
2018-08-03T09:43:46.715Z,3.00
2018-08-03T09:46:15.386Z,3.05
2018-08-03T09:48:44.179Z,8.95
2018-08-03T09:51:13.350Z,3.08
2018-08-03T09:53:41.961Z,2.83
2018-08-03T09:56:10.543Z,8.08
2018-08-03T09:58:40.063Z,4.67
2018-08-03T10:01:11.666Z,2.87
2018-08-03T10:03:41.340Z,2.62
2018-08-03T10:06:10.719Z,3.65
2018-08-03T10:08:39.396Z,3.13
2018-08-03T10:11:08.613Z,3.95
2018-08-03T10:13:37.404Z,3.90
2018-08-03T10:16:06.884Z,5.60
2018-08-03T10:18:36.500Z,2.42
2018-08-03T10:21:05.190Z,2.60
2018-08-03T10:23:33.898Z,2.85
2018-08-03T10:26:02.524Z,2.83
2018-08-03T10:28:31.244Z,2.17
2018-08-03T10:30:59.954Z,2.17
2018-08-03T10:33:28.633Z,2.72
2018-08-03T10:35:57.428Z,2.23
2018-08-03T10:38:26.778Z,6.23
2018-08-03T10:40:55.479Z,3.83
2018-08-03T10:43:25.003Z,2.20
2018-08-03T10:45:54.514Z,3.50
2018-08-03T10:48:23.134Z,10.75
2018-08-03T10:50:51.829Z,2.02
2018-08-03T10:53:20.585Z,1.85
2018-08-03T10:55:49.292Z,2.33
2018-08-03T10:58:17.914Z,2.03
2018-08-03T11:00:46.783Z,3.42
2018-08-03T11:03:16.180Z,1.60
2018-08-03T11:05:44.860Z,2.12
2018-08-03T11:08:13.500Z,1.70
2018-08-03T11:10:42.215Z,1.40
2018-08-03T11:13:10.873Z,5.17
2018-08-03T11:15:40.230Z,1.95
2018-08-03T11:18:08.915Z,1.90
2018-08-03T11:20:37.613Z,2.15
2018-08-03T11:23:06.320Z,1.45
2018-08-03T11:25:35.041Z,2.65
2018-08-03T11:28:04.304Z,3.37
2018-08-03T11:30:42.199Z,1.35
2018-08-03T11:33:10.899Z,2.15
2018-08-03T11:35:39.723Z,2.87
2018-08-03T11:38:08.354Z,1.73
2018-08-03T11:40:37.184Z,1.47
2018-08-03T11:43:05.751Z,6.97
2018-08-03T11:45:34.618Z,1.90
2018-08-03T11:48:03.355Z,1.27
2018-08-03T11:50:32.127Z,1.70
2018-08-03T11:53:00.977Z,3.12
2018-08-03T11:55:29.945Z,2.50
2018-08-03T11:58:00.101Z,2.12
2018-08-03T12:00:29.014Z,1.70
2018-08-03T12:02:58.184Z,1.87
2018-08-03T12:05:26.871Z,3.67
2018-08-03T12:07:55.610Z,1.40
2018-08-03T12:10:24.195Z,1.77
2018-08-03T12:12:52.816Z,1.32
2018-08-03T12:15:21.478Z,1.27
2018-08-03T12:17:50.335Z,1.90
2018-08-03T12:20:18.958Z,1.90
2018-08-03T12:22:48.236Z,1.85
2018-08-03T12:25:16.801Z,3.70
2018-08-03T12:27:45.556Z,1.10
2018-08-03T12:30:14.780Z,1.80
2018-08-03T12:32:43.483Z,2.07
2018-08-03T12:35:12.159Z,2.35
2018-08-03T12:37:40.749Z,1.40
2018-08-03T12:40:09.460Z,1.92
2018-08-03T12:42:39.067Z,1.62
2018-08-03T12:45:07.890Z,3.23
2018-08-03T12:47:36.514Z,1.90
2018-08-03T12:50:05.184Z,1.95
2018-08-03T12:52:33.908Z,2.12
2018-08-03T12:55:02.580Z,1.97
2018-08-03T12:57:31.410Z,2.20
2018-08-03T13:00:00.184Z,2.80
2018-08-03T13:02:28.841Z,1.82
2018-08-03T13:04:57.450Z,4.77
2018-08-03T13:07:26.223Z,2.02
2018-08-03T13:09:55.786Z,2.80
2018-08-03T13:12:24.440Z,2.65
2018-08-03T13:14:53.108Z,2.27
2018-08-03T13:17:21.818Z,3.27
2018-08-03T13:19:50.430Z,2.50
2018-08-03T13:22:22.660Z,4.20
2018-08-03T13:24:51.856Z,3.02
2018-08-03T13:27:21.187Z,7.65
2018-08-03T13:29:49.935Z,3.08
2018-08-03T13:32:19.150Z,3.90
2018-08-03T13:34:48.802Z,7.00
2018-08-03T13:37:17.730Z,5.30
2018-08-03T13:39:46.352Z,4.92
2018-08-03T13:42:15.046Z,4.40
2018-08-03T13:44:43.802Z,10.08
2018-08-03T13:47:12.521Z,5.60
2018-08-03T13:49:41.195Z,5.50
2018-08-03T13:52:09.997Z,6.05
2018-08-03T13:54:38.636Z,6.03
2018-08-03T13:57:07.440Z,5.83
2018-08-03T13:59:36.730Z,9.43
2018-08-03T14:02:27.375Z,6.00
2018-08-03T14:04:56.600Z,9.55
2018-08-03T14:07:27.130Z,6.00
2018-08-03T14:09:56.590Z,8.83
2018-08-03T14:12:25.246Z,9.60
2018-08-03T14:14:54.139Z,7.03
2018-08-03T14:17:22.977Z,6.53
2018-08-03T14:19:51.639Z,9.77
2018-08-03T14:22:20.452Z,7.42
2018-08-03T14:24:50.094Z,6.60
2018-08-03T14:27:18.912Z,6.73
2018-08-03T14:29:47.644Z,6.70
2018-08-03T14:32:16.380Z,12.13
2018-08-03T14:34:45.164Z,11.27
2018-08-03T14:37:13.885Z,7.50
2018-08-03T14:39:43.336Z,13.40
2018-08-03T14:42:12.066Z,6.80
2018-08-03T14:44:41.488Z,9.20
2018-08-03T14:47:10.347Z,7.30
2018-08-03T14:49:39.016Z,7.15
2018-08-03T14:52:07.704Z,8.17
2018-08-03T14:54:36.446Z,8.67
2018-08-03T14:57:05.702Z,7.30
2018-08-03T14:59:35.279Z,7.67
2018-08-03T15:02:04.199Z,10.73
2018-08-03T15:04:33.634Z,7.60
2018-08-03T15:07:02.319Z,12.93
2018-08-03T15:09:30.962Z,7.30
2018-08-03T15:11:59.640Z,7.83
2018-08-03T15:14:28.406Z,6.70
2018-08-03T15:16:57.110Z,13.27
2018-08-03T15:19:25.799Z,9.77
2018-08-03T15:21:54.552Z,8.75
2018-08-03T15:24:23.195Z,11.67
2018-08-03T15:26:51.922Z,8.90
2018-08-03T15:29:20.664Z,8.13
2018-08-03T15:31:49.367Z,6.47
2018-08-03T15:34:18.087Z,13.93
2018-08-03T15:36:46.898Z,13.93
2018-08-03T15:39:15.578Z,8.17
2018-08-03T15:41:44.380Z,12.90
2018-08-03T15:44:13.126Z,10.10
2018-08-03T15:46:41.945Z,9.97
2018-08-03T15:49:10.616Z,6.30
2018-08-03T15:51:39.982Z,7.43
2018-08-03T15:54:08.747Z,6.83
2018-08-03T15:56:37.429Z,6.50
2018-08-03T15:59:06.199Z,7.00
2018-08-03T16:01:35.637Z,13.17
2018-08-03T16:04:04.326Z,6.53
2018-08-03T16:06:33.147Z,17.90
2018-08-03T16:09:02.563Z,8.00
2018-08-03T16:11:31.237Z,6.17
2018-08-03T16:13:59.986Z,6.40
2018-08-03T16:16:28.941Z,9.90
2018-08-03T16:18:57.598Z,7.50
2018-08-03T16:21:26.515Z,11.67
2018-08-03T16:23:55.220Z,7.90
2018-08-03T16:26:24.125Z,7.30
2018-08-03T16:28:52.922Z,10.03
2018-08-03T16:31:21.626Z,7.23
2018-08-03T16:33:50.330Z,9.77
2018-08-03T16:36:18.996Z,6.47
2018-08-03T16:38:47.965Z,9.17
2018-08-03T16:41:16.663Z,13.20
2018-08-03T16:43:45.456Z,6.70
2018-08-03T16:46:14.097Z,6.67
2018-08-03T16:48:42.858Z,6.40
2018-08-03T16:51:11.707Z,6.37
2018-08-03T16:53:40.545Z,7.20
2018-08-03T16:56:09.336Z,7.50
2018-08-03T16:58:38.135Z,7.03
2018-08-03T17:01:06.924Z,9.20
2018-08-03T17:03:35.618Z,6.03
2018-08-03T17:06:04.883Z,6.20
2018-08-03T17:08:33.617Z,22.67
2018-08-03T17:11:02.285Z,6.23
2018-08-03T17:13:31.053Z,7.47
2018-08-03T17:15:59.776Z,9.10
2018-08-03T17:18:28.551Z,6.97
2018-08-03T17:20:57.856Z,10.27
2018-08-03T17:23:26.486Z,6.30
2018-08-03T17:25:55.683Z,9.10
2018-08-03T17:28:24.827Z,11.97
2018-08-03T17:30:54.105Z,8.13
2018-08-03T17:33:23.462Z,13.00
2018-08-03T17:35:52.126Z,8.30
2018-08-03T17:38:21.432Z,12.27
2018-08-03T17:40:50.076Z,8.05
2018-08-03T17:43:18.800Z,11.20
2018-08-03T17:45:47.526Z,8.30
2018-08-03T17:48:16.277Z,24.60
2018-08-03T17:50:46.406Z,39.97
2018-08-03T17:53:15.036Z,41.23
2018-08-03T17:55:43.763Z,35.23
2018-08-03T17:58:12.520Z,14.10
2018-08-03T18:00:41.983Z,8.90
2018-08-03T18:03:10.663Z,15.30
2018-08-03T18:05:39.288Z,18.67
2018-08-03T18:08:08.081Z,37.87
2018-08-03T18:10:36.773Z,10.73
2018-08-03T18:13:05.923Z,9.97
2018-08-03T18:15:34.768Z,9.47
2018-08-03T18:18:03.438Z,33.23
2018-08-03T18:20:32.746Z,27.57
2018-08-03T18:23:01.522Z,31.13
2018-08-03T18:25:30.177Z,12.90
2018-08-03T18:27:58.895Z,28.80
2018-08-03T18:30:27.567Z,10.03
2018-08-03T18:32:56.338Z,9.40
2018-08-03T18:35:25.081Z,10.97
2018-08-03T18:37:53.836Z,12.13
2018-08-03T18:40:22.594Z,9.83
2018-08-03T18:42:52.014Z,14.60
2018-08-03T18:45:20.770Z,13.87
2018-08-03T18:47:49.414Z,9.93
2018-08-03T18:50:18.066Z,16.50
2018-08-03T18:52:46.786Z,12.60
2018-08-03T18:55:15.477Z,13.53
2018-08-03T18:57:44.136Z,17.10
2018-08-03T19:00:12.944Z,18.10
2018-08-03T19:02:41.545Z,26.97
2018-08-03T19:05:10.381Z,13.97
2018-08-03T19:07:39.074Z,24.20
2018-08-03T19:10:07.867Z,20.37
2018-08-03T19:12:36.638Z,29.50
2018-08-03T19:15:06.013Z,17.57
2018-08-03T19:17:34.937Z,18.53
2018-08-03T19:20:04.289Z,14.50
2018-08-03T19:22:33.349Z,16.80
2018-08-03T19:25:02.881Z,21.90
2018-08-03T19:27:31.652Z,17.53
2018-08-03T19:30:00.391Z,22.30
2018-08-03T19:32:29.294Z,12.73
2018-08-03T19:34:58.053Z,16.03
2018-08-03T19:37:26.861Z,14.13
2018-08-03T19:39:55.757Z,14.80
2018-08-03T19:42:24.499Z,12.53
2018-08-03T19:44:53.922Z,16.30
2018-08-03T19:47:22.661Z,12.60
2018-08-03T19:49:51.529Z,18.40
2018-08-03T19:52:20.247Z,12.37
2018-08-03T19:54:49.548Z,13.23
2018-08-03T19:57:18.261Z,13.03
2018-08-03T19:59:46.910Z,15.90
2018-08-03T20:02:17.406Z,14.43
2018-08-03T20:04:46.257Z,15.80
2018-08-03T20:07:14.991Z,13.75
2018-08-03T20:09:43.738Z,13.40
2018-08-03T20:12:13.120Z,16.43
2018-08-03T20:14:42.080Z,13.10
2018-08-03T20:17:11.692Z,13.43
2018-08-03T20:19:40.372Z,13.67
2018-08-03T20:22:17.350Z,12.27
2018-08-03T20:24:47.188Z,16.07
2018-08-03T20:27:16.607Z,14.73
2018-08-03T20:29:45.662Z,13.57
2018-08-03T20:32:14.603Z,15.13
2018-08-03T20:34:43.919Z,19.57
2018-08-03T20:37:12.647Z,14.53
2018-08-03T20:39:42.189Z,13.73
2018-08-03T20:42:10.999Z,15.50
2018-08-03T20:44:39.815Z,15.60
2018-08-03T20:47:08.774Z,15.40
2018-08-03T20:49:38.295Z,14.47
2018-08-03T20:52:07.169Z,15.33
2018-08-03T20:54:35.716Z,19.47
2018-08-03T20:57:04.429Z,13.13
2018-08-03T20:59:33.138Z,15.23
2018-08-03T21:02:02.511Z,14.20
2018-08-03T21:04:32.230Z,13.80
2018-08-03T21:07:00.912Z,17.20
2018-08-03T21:09:29.609Z,15.83
2018-08-03T21:11:59.103Z,15.40
2018-08-03T21:14:27.792Z,18.40
2018-08-03T21:16:56.494Z,18.23
2018-08-03T21:19:25.849Z,17.37
2018-08-03T21:21:54.509Z,15.53
2018-08-03T21:24:23.276Z,15.30
2018-08-03T21:26:52.092Z,16.05
2018-08-03T21:29:20.812Z,17.00
2018-08-03T21:31:51.177Z,18.77
2018-08-03T21:34:20.059Z,19.07
2018-08-03T21:36:48.694Z,30.07
2018-08-03T21:39:17.483Z,17.83
2018-08-03T21:41:46.212Z,16.87
2018-08-03T21:44:15.277Z,15.57
2018-08-03T21:46:44.068Z,16.47
2018-08-03T21:49:12.693Z,17.73
2018-08-03T21:51:42.085Z,19.07
2018-08-03T21:54:10.788Z,17.33
2018-08-03T21:56:39.438Z,17.33
2018-08-03T21:59:08.152Z,20.62
2018-08-03T22:01:36.809Z,19.60
2018-08-03T22:04:05.450Z,17.50
2018-08-03T22:06:34.226Z,23.57
2018-08-03T22:09:03.158Z,20.10
2018-08-03T22:11:31.832Z,18.53
2018-08-03T22:14:00.549Z,18.23
2018-08-03T22:16:29.249Z,19.70
2018-08-03T22:18:58.702Z,19.50
2018-08-03T22:21:27.349Z,21.00
2018-08-03T22:23:55.965Z,27.33
2018-08-03T22:26:25.358Z,19.73
2018-08-03T22:28:54.980Z,25.60
2018-08-03T22:31:24.479Z,27.57
2018-08-03T22:33:53.836Z,21.40
2018-08-03T22:36:23.297Z,21.00
2018-08-03T22:38:52.153Z,21.57
2018-08-03T22:41:20.795Z,19.50
2018-08-03T22:43:49.702Z,17.20
2018-08-03T22:46:18.289Z,17.95
2018-08-03T22:48:47.097Z,17.07
2018-08-03T22:51:15.777Z,15.93
2018-08-03T22:53:44.625Z,17.40
2018-08-03T22:56:13.259Z,24.03
2018-08-03T22:58:41.993Z,17.83
2018-08-03T23:01:10.882Z,14.70
2018-08-03T23:03:39.530Z,15.93
2018-08-03T23:06:09.217Z,15.23
2018-08-03T23:08:37.997Z,15.78
2018-08-03T23:11:07.447Z,15.03
2018-08-03T23:13:36.137Z,20.35
2018-08-03T23:16:04.913Z,20.50
2018-08-03T23:18:34.142Z,15.10
2018-08-03T23:21:02.867Z,14.83
2018-08-03T23:23:31.509Z,15.40
2018-08-03T23:26:00.189Z,17.10
2018-08-03T23:28:28.798Z,15.77
2018-08-03T23:30:57.466Z,14.87
2018-08-03T23:33:26.151Z,16.90
2018-08-03T23:35:54.983Z,17.53
2018-08-03T23:38:23.653Z,15.80
2018-08-03T23:40:52.402Z,17.65
2018-08-03T23:43:21.165Z,17.33
2018-08-03T23:45:50.613Z,15.30
2018-08-03T23:48:19.228Z,16.73
2018-08-03T23:50:47.876Z,16.97
2018-08-03T23:53:16.483Z,16.47
2018-08-03T23:55:45.257Z,16.00
2018-08-03T23:58:13.902Z,15.97
